sensor_id;sensor_type;location;lat;lon;timestamp;P1;durP1;ratioP1;P2;durP2;ratioP2
9898;SDS011;4988;49.238;6.698;2023-04-02T00:01:04;6.93;;;5.10;;
9898;SDS011;4988;49.238;6.698;2023-04-02T00:08:56;6.77;;;4.90;;
9898;SDS011;4988;49.238;6.698;2023-04-02T00:11:29;6.43;;;4.30;;
9898;SDS011;4988;49.238;6.698;2023-04-02T00:13:59;6.97;;;4.03;;
9898;SDS011;4988;49.238;6.698;2023-04-02T00:16:26;7.50;;;4.33;;
9898;SDS011;4988;49.238;6.698;2023-04-02T00:18:53;6.77;;;4.77;;
9898;SDS011;4988;49.238;6.698;2023-04-02T00:21:26;7.90;;;4.87;;
9898;SDS011;4988;49.238;6.698;2023-04-02T00:23:53;7.70;;;4.97;;
9898;SDS011;4988;49.238;6.698;2023-04-02T00:26:33;6.53;;;4.53;;
9898;SDS011;4988;49.238;6.698;2023-04-02T00:29:02;8.17;;;4.23;;
9898;SDS011;4988;49.238;6.698;2023-04-02T00:31:29;6.67;;;4.63;;
9898;SDS011;4988;49.238;6.698;2023-04-02T00:33:57;6.30;;;4.50;;
9898;SDS011;4988;49.238;6.698;2023-04-02T00:36:25;8.10;;;4.20;;
9898;SDS011;4988;49.238;6.698;2023-04-02T00:38:54;7.17;;;4.70;;
9898;SDS011;4988;49.238;6.698;2023-04-02T00:41:23;7.37;;;4.47;;
9898;SDS011;4988;49.238;6.698;2023-04-02T00:43:53;8.20;;;4.40;;
9898;SDS011;4988;49.238;6.698;2023-04-02T00:46:29;7.20;;;4.83;;
9898;SDS011;4988;49.238;6.698;2023-04-02T00:51:31;10.53;;;5.80;;
9898;SDS011;4988;49.238;6.698;2023-04-02T00:54:01;7.80;;;5.20;;
9898;SDS011;4988;49.238;6.698;2023-04-02T00:56:37;8.63;;;5.37;;
9898;SDS011;4988;49.238;6.698;2023-04-02T00:59:24;8.90;;;5.30;;
9898;SDS011;4988;49.238;6.698;2023-04-02T01:01:53;9.40;;;5.03;;
9898;SDS011;4988;49.238;6.698;2023-04-02T01:04:34;9.63;;;5.40;;
9898;SDS011;4988;49.238;6.698;2023-04-02T01:07:04;9.63;;;5.60;;
9898;SDS011;4988;49.238;6.698;2023-04-02T01:14:59;12.17;;;6.23;;
9898;SDS011;4988;49.238;6.698;2023-04-02T01:23:31;10.70;;;5.97;;
9898;SDS011;4988;49.238;6.698;2023-04-02T01:26:03;10.70;;;6.03;;
9898;SDS011;4988;49.238;6.698;2023-04-02T01:28:46;9.47;;;5.53;;
9898;SDS011;4988;49.238;6.698;2023-04-02T01:31:29;8.93;;;5.53;;
9898;SDS011;4988;49.238;6.698;2023-04-02T01:33:57;9.93;;;5.50;;
9898;SDS011;4988;49.238;6.698;2023-04-02T01:39:23;10.00;;;5.87;;
9898;SDS011;4988;49.238;6.698;2023-04-02T01:47:36;10.70;;;5.83;;
9898;SDS011;4988;49.238;6.698;2023-04-02T01:50:48;11.70;;;6.10;;
9898;SDS011;4988;49.238;6.698;2023-04-02T01:52:57;10.53;;;5.77;;
9898;SDS011;4988;49.238;6.698;2023-04-02T01:55:39;11.73;;;5.87;;
9898;SDS011;4988;49.238;6.698;2023-04-02T01:58:08;10.00;;;5.53;;
9898;SDS011;4988;49.238;6.698;2023-04-02T02:00:35;9.90;;;6.23;;
9898;SDS011;4988;49.238;6.698;2023-04-02T02:03:09;10.33;;;5.90;;
9898;SDS011;4988;49.238;6.698;2023-04-02T02:05:37;11.73;;;6.40;;
9898;SDS011;4988;49.238;6.698;2023-04-02T02:08:02;9.73;;;5.80;;
9898;SDS011;4988;49.238;6.698;2023-04-02T02:10:34;9.40;;;5.90;;
9898;SDS011;4988;49.238;6.698;2023-04-02T02:13:03;9.83;;;5.47;;
9898;SDS011;4988;49.238;6.698;2023-04-02T02:15:29;8.83;;;5.17;;
9898;SDS011;4988;49.238;6.698;2023-04-02T02:17:58;8.70;;;5.00;;
9898;SDS011;4988;49.238;6.698;2023-04-02T02:20:27;8.83;;;5.70;;
9898;SDS011;4988;49.238;6.698;2023-04-02T02:22:53;8.77;;;5.40;;
9898;SDS011;4988;49.238;6.698;2023-04-02T02:25:20;9.50;;;5.57;;
9898;SDS011;4988;49.238;6.698;2023-04-02T02:27:59;9.07;;;5.83;;
9898;SDS011;4988;49.238;6.698;2023-04-02T02:30:43;9.10;;;6.00;;
9898;SDS011;4988;49.238;6.698;2023-04-02T02:33:20;7.97;;;5.23;;
9898;SDS011;4988;49.238;6.698;2023-04-02T02:38:24;9.53;;;5.03;;
9898;SDS011;4988;49.238;6.698;2023-04-02T02:40:57;9.27;;;5.60;;
9898;SDS011;4988;49.238;6.698;2023-04-02T02:43:31;8.93;;;5.33;;
9898;SDS011;4988;49.238;6.698;2023-04-02T02:45:57;8.73;;;5.47;;
9898;SDS011;4988;49.238;6.698;2023-04-02T02:48:31;10.57;;;5.97;;
9898;SDS011;4988;49.238;6.698;2023-04-02T02:51:03;8.90;;;5.33;;
9898;SDS011;4988;49.238;6.698;2023-04-02T02:53:33;8.80;;;5.60;;
9898;SDS011;4988;49.238;6.698;2023-04-02T02:56:12;9.13;;;5.50;;
9898;SDS011;4988;49.238;6.698;2023-04-02T02:58:38;8.40;;;5.40;;
9898;SDS011;4988;49.238;6.698;2023-04-02T03:01:03;7.87;;;5.23;;
9898;SDS011;4988;49.238;6.698;2023-04-02T03:03:29;7.87;;;5.37;;
9898;SDS011;4988;49.238;6.698;2023-04-02T03:06:08;7.83;;;5.00;;
9898;SDS011;4988;49.238;6.698;2023-04-02T03:08:42;7.47;;;4.70;;
9898;SDS011;4988;49.238;6.698;2023-04-02T03:11:17;6.27;;;4.53;;
9898;SDS011;4988;49.238;6.698;2023-04-02T03:13:54;8.33;;;5.03;;
9898;SDS011;4988;49.238;6.698;2023-04-02T03:16:28;10.43;;;5.03;;
9898;SDS011;4988;49.238;6.698;2023-04-02T03:30:10;7.80;;;5.20;;
9898;SDS011;4988;49.238;6.698;2023-04-02T03:32:51;9.13;;;5.27;;
9898;SDS011;4988;49.238;6.698;2023-04-02T03:38:32;8.50;;;5.03;;
9898;SDS011;4988;49.238;6.698;2023-04-02T03:41:05;6.10;;;4.63;;
9898;SDS011;4988;49.238;6.698;2023-04-02T03:43:39;6.87;;;4.80;;
9898;SDS011;4988;49.238;6.698;2023-04-02T03:49:23;6.90;;;4.67;;
9898;SDS011;4988;49.238;6.698;2023-04-02T03:52:09;5.90;;;4.13;;
9898;SDS011;4988;49.238;6.698;2023-04-02T03:54:36;7.90;;;4.53;;
9898;SDS011;4988;49.238;6.698;2023-04-02T03:57:02;5.93;;;4.57;;
9898;SDS011;4988;49.238;6.698;2023-04-02T03:59:38;5.70;;;4.10;;
9898;SDS011;4988;49.238;6.698;2023-04-02T04:04:42;5.90;;;3.93;;
9898;SDS011;4988;49.238;6.698;2023-04-02T04:07:54;6.37;;;4.40;;
9898;SDS011;4988;49.238;6.698;2023-04-02T04:10:05;5.93;;;4.33;;
9898;SDS011;4988;49.238;6.698;2023-04-02T04:12:38;7.03;;;3.80;;
9898;SDS011;4988;49.238;6.698;2023-04-02T04:15:26;8.00;;;4.43;;
9898;SDS011;4988;49.238;6.698;2023-04-02T04:18:01;6.10;;;3.80;;
9898;SDS011;4988;49.238;6.698;2023-04-02T04:20:50;6.20;;;4.23;;
9898;SDS011;4988;49.238;6.698;2023-04-02T04:23:22;6.40;;;4.43;;
9898;SDS011;4988;49.238;6.698;2023-04-02T04:31:31;5.83;;;4.10;;
9898;SDS011;4988;49.238;6.698;2023-04-02T04:34:04;5.20;;;4.00;;
9898;SDS011;4988;49.238;6.698;2023-04-02T04:36:56;4.77;;;3.97;;
9898;SDS011;4988;49.238;6.698;2023-04-02T04:42:05;4.73;;;4.07;;
9898;SDS011;4988;49.238;6.698;2023-04-02T04:44:36;5.33;;;3.57;;
9898;SDS011;4988;49.238;6.698;2023-04-02T04:47:17;4.53;;;3.40;;
9898;SDS011;4988;49.238;6.698;2023-04-02T04:49:51;5.30;;;3.30;;
9898;SDS011;4988;49.238;6.698;2023-04-02T04:52:22;8.37;;;3.80;;
9898;SDS011;4988;49.238;6.698;2023-04-02T04:54:50;4.70;;;3.60;;
9898;SDS011;4988;49.238;6.698;2023-04-02T04:57:35;4.83;;;3.87;;
9898;SDS011;4988;49.238;6.698;2023-04-02T05:02:37;4.17;;;3.40;;
9898;SDS011;4988;49.238;6.698;2023-04-02T05:05:19;3.43;;;3.10;;
9898;SDS011;4988;49.238;6.698;2023-04-02T05:07:55;3.70;;;3.20;;
9898;SDS011;4988;49.238;6.698;2023-04-02T05:10:27;5.70;;;3.53;;
9898;SDS011;4988;49.238;6.698;2023-04-02T05:13:16;4.77;;;3.20;;
9898;SDS011;4988;49.238;6.698;2023-04-02T05:16:00;3.53;;;2.87;;
9898;SDS011;4988;49.238;6.698;2023-04-02T05:18:36;3.53;;;3.23;;
9898;SDS011;4988;49.238;6.698;2023-04-02T05:23:51;4.40;;;3.43;;
9898;SDS011;4988;49.238;6.698;2023-04-02T05:26:23;4.10;;;3.40;;
9898;SDS011;4988;49.238;6.698;2023-04-02T05:28:58;3.90;;;3.50;;
9898;SDS011;4988;49.238;6.698;2023-04-02T05:34:09;3.70;;;3.20;;
9898;SDS011;4988;49.238;6.698;2023-04-02T05:36:36;3.97;;;3.47;;
9898;SDS011;4988;49.238;6.698;2023-04-02T05:39:02;3.70;;;3.30;;
9898;SDS011;4988;49.238;6.698;2023-04-02T05:41:34;3.53;;;3.23;;
9898;SDS011;4988;49.238;6.698;2023-04-02T05:47:10;4.20;;;3.40;;
9898;SDS011;4988;49.238;6.698;2023-04-02T05:49:43;5.13;;;3.60;;
9898;SDS011;4988;49.238;6.698;2023-04-02T05:52:16;5.90;;;3.53;;
9898;SDS011;4988;49.238;6.698;2023-04-02T05:54:54;4.90;;;3.70;;
9898;SDS011;4988;49.238;6.698;2023-04-02T05:57:30;4.23;;;3.63;;
9898;SDS011;4988;49.238;6.698;2023-04-02T06:00:03;4.43;;;3.43;;
9898;SDS011;4988;49.238;6.698;2023-04-02T06:02:35;5.30;;;3.53;;
9898;SDS011;4988;49.238;6.698;2023-04-02T06:05:15;4.17;;;3.70;;
9898;SDS011;4988;49.238;6.698;2023-04-02T06:07:50;3.70;;;3.10;;
9898;SDS011;4988;49.238;6.698;2023-04-02T06:12:54;4.53;;;3.50;;
9898;SDS011;4988;49.238;6.698;2023-04-02T06:15:27;3.70;;;3.30;;
9898;SDS011;4988;49.238;6.698;2023-04-02T06:18:05;3.53;;;3.20;;
9898;SDS011;4988;49.238;6.698;2023-04-02T06:20:43;5.20;;;3.70;;
9898;SDS011;4988;49.238;6.698;2023-04-02T06:25:55;4.80;;;3.27;;
9898;SDS011;4988;49.238;6.698;2023-04-02T06:31:23;3.73;;;3.33;;
9898;SDS011;4988;49.238;6.698;2023-04-02T06:33:59;5.20;;;3.53;;
9898;SDS011;4988;49.238;6.698;2023-04-02T06:36:25;5.77;;;4.00;;
9898;SDS011;4988;49.238;6.698;2023-04-02T06:38:51;5.77;;;3.70;;
9898;SDS011;4988;49.238;6.698;2023-04-02T06:41:22;6.20;;;3.70;;
9898;SDS011;4988;49.238;6.698;2023-04-02T06:43:50;3.67;;;3.27;;
9898;SDS011;4988;49.238;6.698;2023-04-02T06:49:09;4.23;;;3.77;;
9898;SDS011;4988;49.238;6.698;2023-04-02T06:51:37;4.40;;;3.77;;
9898;SDS011;4988;49.238;6.698;2023-04-02T06:54:04;5.47;;;3.73;;
9898;SDS011;4988;49.238;6.698;2023-04-02T06:56:41;5.37;;;4.43;;
9898;SDS011;4988;49.238;6.698;2023-04-02T06:59:08;4.33;;;3.70;;
9898;SDS011;4988;49.238;6.698;2023-04-02T07:01:38;5.57;;;4.40;;
9898;SDS011;4988;49.238;6.698;2023-04-02T07:04:07;5.53;;;4.10;;
9898;SDS011;4988;49.238;6.698;2023-04-02T07:06:34;5.63;;;4.43;;
9898;SDS011;4988;49.238;6.698;2023-04-02T07:08:59;5.83;;;4.37;;
9898;SDS011;4988;49.238;6.698;2023-04-02T07:11:25;5.37;;;4.40;;
9898;SDS011;4988;49.238;6.698;2023-04-02T07:13:51;5.60;;;4.03;;
9898;SDS011;4988;49.238;6.698;2023-04-02T07:16:17;5.57;;;4.43;;
9898;SDS011;4988;49.238;6.698;2023-04-02T07:18:45;4.47;;;3.53;;
9898;SDS011;4988;49.238;6.698;2023-04-02T07:21:11;4.33;;;3.57;;
9898;SDS011;4988;49.238;6.698;2023-04-02T07:23:36;5.53;;;3.80;;
9898;SDS011;4988;49.238;6.698;2023-04-02T07:26:02;6.07;;;4.00;;
9898;SDS011;4988;49.238;6.698;2023-04-02T07:28:28;4.83;;;4.10;;
9898;SDS011;4988;49.238;6.698;2023-04-02T07:30:54;4.87;;;4.00;;
9898;SDS011;4988;49.238;6.698;2023-04-02T07:33:21;4.40;;;3.67;;
9898;SDS011;4988;49.238;6.698;2023-04-02T07:35:49;4.23;;;3.57;;
9898;SDS011;4988;49.238;6.698;2023-04-02T07:38:15;4.00;;;3.50;;
9898;SDS011;4988;49.238;6.698;2023-04-02T07:40:41;3.50;;;3.20;;
9898;SDS011;4988;49.238;6.698;2023-04-02T07:43:06;2.97;;;2.77;;
9898;SDS011;4988;49.238;6.698;2023-04-02T07:45:32;3.10;;;2.83;;
9898;SDS011;4988;49.238;6.698;2023-04-02T07:48:07;3.50;;;3.20;;
9898;SDS011;4988;49.238;6.698;2023-04-02T07:50:34;2.97;;;2.77;;
9898;SDS011;4988;49.238;6.698;2023-04-02T07:53:00;5.10;;;3.97;;
9898;SDS011;4988;49.238;6.698;2023-04-02T07:55:26;3.80;;;3.23;;
9898;SDS011;4988;49.238;6.698;2023-04-02T07:57:52;3.43;;;2.93;;
9898;SDS011;4988;49.238;6.698;2023-04-02T08:00:20;3.70;;;2.90;;
9898;SDS011;4988;49.238;6.698;2023-04-02T08:02:46;3.93;;;3.00;;
9898;SDS011;4988;49.238;6.698;2023-04-02T08:05:12;3.00;;;2.80;;
9898;SDS011;4988;49.238;6.698;2023-04-02T08:07:38;3.40;;;3.10;;
9898;SDS011;4988;49.238;6.698;2023-04-02T08:10:04;3.37;;;3.07;;
9898;SDS011;4988;49.238;6.698;2023-04-02T08:12:32;2.90;;;2.70;;
9898;SDS011;4988;49.238;6.698;2023-04-02T08:14:57;3.63;;;3.10;;
9898;SDS011;4988;49.238;6.698;2023-04-02T08:17:25;3.30;;;3.00;;
9898;SDS011;4988;49.238;6.698;2023-04-02T08:19:58;3.40;;;3.10;;
9898;SDS011;4988;49.238;6.698;2023-04-02T08:22:28;4.90;;;3.87;;
9898;SDS011;4988;49.238;6.698;2023-04-02T08:24:54;3.60;;;3.30;;
9898;SDS011;4988;49.238;6.698;2023-04-02T08:27:21;3.70;;;3.40;;
9898;SDS011;4988;49.238;6.698;2023-04-02T08:29:47;3.23;;;2.83;;
9898;SDS011;4988;49.238;6.698;2023-04-02T08:32:13;3.10;;;2.80;;
9898;SDS011;4988;49.238;6.698;2023-04-02T08:34:40;3.43;;;2.97;;
9898;SDS011;4988;49.238;6.698;2023-04-02T08:37:07;3.13;;;2.83;;
9898;SDS011;4988;49.238;6.698;2023-04-02T08:39:36;3.93;;;2.90;;
9898;SDS011;4988;49.238;6.698;2023-04-02T08:42:03;3.40;;;3.10;;
9898;SDS011;4988;49.238;6.698;2023-04-02T08:45:00;3.60;;;3.30;;
9898;SDS011;4988;49.238;6.698;2023-04-02T08:47:42;5.73;;;3.90;;
9898;SDS011;4988;49.238;6.698;2023-04-02T08:50:11;4.87;;;4.13;;
9898;SDS011;4988;49.238;6.698;2023-04-02T08:52:45;4.03;;;3.63;;
9898;SDS011;4988;49.238;6.698;2023-04-02T08:55:16;4.00;;;3.40;;
9898;SDS011;4988;49.238;6.698;2023-04-02T08:58:00;3.80;;;3.40;;
9898;SDS011;4988;49.238;6.698;2023-04-02T09:00:30;4.53;;;3.63;;
9898;SDS011;4988;49.238;6.698;2023-04-02T09:03:19;3.90;;;3.50;;
9898;SDS011;4988;49.238;6.698;2023-04-02T09:05:52;4.80;;;3.50;;
9898;SDS011;4988;49.238;6.698;2023-04-02T09:08:22;3.77;;;3.47;;
9898;SDS011;4988;49.238;6.698;2023-04-02T09:13:24;3.97;;;3.17;;
9898;SDS011;4988;49.238;6.698;2023-04-02T09:15:52;3.70;;;3.30;;
9898;SDS011;4988;49.238;6.698;2023-04-02T09:18:40;3.93;;;3.20;;
9898;SDS011;4988;49.238;6.698;2023-04-02T09:23:45;4.67;;;4.10;;
9898;SDS011;4988;49.238;6.698;2023-04-02T09:26:21;4.83;;;3.97;;
9898;SDS011;4988;49.238;6.698;2023-04-02T09:28:52;5.27;;;3.70;;
9898;SDS011;4988;49.238;6.698;2023-04-02T09:31:41;4.73;;;3.77;;
9898;SDS011;4988;49.238;6.698;2023-04-02T09:34:25;3.80;;;3.00;;
9898;SDS011;4988;49.238;6.698;2023-04-02T09:36:53;4.10;;;3.00;;
9898;SDS011;4988;49.238;6.698;2023-04-02T09:39:19;3.40;;;3.10;;
9898;SDS011;4988;49.238;6.698;2023-04-02T09:41:47;3.50;;;3.20;;
9898;SDS011;4988;49.238;6.698;2023-04-02T09:44:22;4.90;;;3.20;;
9898;SDS011;4988;49.238;6.698;2023-04-02T09:46:53;5.73;;;4.03;;
9898;SDS011;4988;49.238;6.698;2023-04-02T09:49:24;3.90;;;3.40;;
9898;SDS011;4988;49.238;6.698;2023-04-02T09:54:35;7.73;;;4.73;;
9898;SDS011;4988;49.238;6.698;2023-04-02T09:57:20;5.83;;;3.60;;
9898;SDS011;4988;49.238;6.698;2023-04-02T10:02:34;4.07;;;3.67;;
9898;SDS011;4988;49.238;6.698;2023-04-02T10:05:04;4.60;;;3.93;;
9898;SDS011;4988;49.238;6.698;2023-04-02T10:07:38;7.33;;;5.00;;
9898;SDS011;4988;49.238;6.698;2023-04-02T10:13:05;6.83;;;5.03;;
9898;SDS011;4988;49.238;6.698;2023-04-02T10:15:39;6.47;;;4.57;;
9898;SDS011;4988;49.238;6.698;2023-04-02T10:18:56;4.73;;;4.23;;
9898;SDS011;4988;49.238;6.698;2023-04-02T10:21:16;6.63;;;4.97;;
9898;SDS011;4988;49.238;6.698;2023-04-02T10:23:43;4.90;;;4.20;;
9898;SDS011;4988;49.238;6.698;2023-04-02T10:26:22;5.97;;;4.30;;
9898;SDS011;4988;49.238;6.698;2023-04-02T10:31:56;4.97;;;4.17;;
9898;SDS011;4988;49.238;6.698;2023-04-02T10:40:11;5.43;;;2.90;;
9898;SDS011;4988;49.238;6.698;2023-04-02T10:42:42;4.70;;;2.90;;
9898;SDS011;4988;49.238;6.698;2023-04-02T10:55:59;3.30;;;2.90;;
9898;SDS011;4988;49.238;6.698;2023-04-02T10:58:32;4.80;;;2.60;;
9898;SDS011;4988;49.238;6.698;2023-04-02T11:01:10;2.87;;;2.67;;
9898;SDS011;4988;49.238;6.698;2023-04-02T11:03:43;3.50;;;3.20;;
9898;SDS011;4988;49.238;6.698;2023-04-02T11:06:18;3.43;;;3.13;;
9898;SDS011;4988;49.238;6.698;2023-04-02T11:08:49;4.30;;;2.87;;
9898;SDS011;4988;49.238;6.698;2023-04-02T11:11:23;3.37;;;2.77;;
9898;SDS011;4988;49.238;6.698;2023-04-02T11:14:04;3.37;;;2.60;;
9898;SDS011;4988;49.238;6.698;2023-04-02T11:16:36;3.10;;;2.80;;
9898;SDS011;4988;49.238;6.698;2023-04-02T11:21:43;2.90;;;2.60;;
9898;SDS011;4988;49.238;6.698;2023-04-02T11:29:45;4.37;;;2.77;;
9898;SDS011;4988;49.238;6.698;2023-04-02T11:42:39;5.03;;;3.97;;
9898;SDS011;4988;49.238;6.698;2023-04-02T11:46:37;8.10;;;4.77;;
9898;SDS011;4988;49.238;6.698;2023-04-02T11:50:42;6.37;;;4.63;;
9898;SDS011;4988;49.238;6.698;2023-04-02T11:55:34;3.03;;;2.70;;
9898;SDS011;4988;49.238;6.698;2023-04-02T12:00:46;2.40;;;2.20;;
9898;SDS011;4988;49.238;6.698;2023-04-02T12:05:50;2.50;;;2.30;;
9898;SDS011;4988;49.238;6.698;2023-04-02T12:11:03;2.50;;;2.30;;
9898;SDS011;4988;49.238;6.698;2023-04-02T12:16:03;3.43;;;2.80;;
9898;SDS011;4988;49.238;6.698;2023-04-02T12:18:31;3.23;;;2.70;;
9898;SDS011;4988;49.238;6.698;2023-04-02T12:20:57;3.20;;;2.90;;
9898;SDS011;4988;49.238;6.698;2023-04-02T12:23:24;3.60;;;2.40;;
9898;SDS011;4988;49.238;6.698;2023-04-02T12:25:56;2.60;;;2.40;;
9898;SDS011;4988;49.238;6.698;2023-04-02T12:28:26;3.87;;;3.00;;
9898;SDS011;4988;49.238;6.698;2023-04-02T12:33:37;2.80;;;2.60;;
9898;SDS011;4988;49.238;6.698;2023-04-02T12:36:05;2.90;;;2.70;;
9898;SDS011;4988;49.238;6.698;2023-04-02T12:38:51;3.07;;;2.77;;
9898;SDS011;4988;49.238;6.698;2023-04-02T12:41:20;4.20;;;3.00;;
9898;SDS011;4988;49.238;6.698;2023-04-02T12:44:12;4.60;;;3.20;;
9898;SDS011;4988;49.238;6.698;2023-04-02T12:46:46;3.43;;;3.13;;
9898;SDS011;4988;49.238;6.698;2023-04-02T12:52:14;6.27;;;3.77;;
9898;SDS011;4988;49.238;6.698;2023-04-02T12:54:46;6.93;;;3.90;;
9898;SDS011;4988;49.238;6.698;2023-04-02T12:59:55;4.60;;;3.90;;
9898;SDS011;4988;49.238;6.698;2023-04-02T13:02:25;4.63;;;3.50;;
9898;SDS011;4988;49.238;6.698;2023-04-02T13:04:53;4.87;;;3.50;;
9898;SDS011;4988;49.238;6.698;2023-04-02T13:07:21;5.20;;;4.07;;
9898;SDS011;4988;49.238;6.698;2023-04-02T13:09:50;12.57;;;5.60;;
9898;SDS011;4988;49.238;6.698;2023-04-02T13:14:51;6.70;;;4.70;;
9898;SDS011;4988;49.238;6.698;2023-04-02T13:22:51;5.53;;;2.90;;
9898;SDS011;4988;49.238;6.698;2023-04-02T13:25:16;5.37;;;3.33;;
9898;SDS011;4988;49.238;6.698;2023-04-02T13:27:42;4.90;;;3.03;;
9898;SDS011;4988;49.238;6.698;2023-04-02T13:30:08;9.17;;;3.70;;
9898;SDS011;4988;49.238;6.698;2023-04-02T13:32:34;4.00;;;3.20;;
9898;SDS011;4988;49.238;6.698;2023-04-02T13:35:01;2.70;;;2.50;;
9898;SDS011;4988;49.238;6.698;2023-04-02T13:37:26;2.83;;;2.63;;
9898;SDS011;4988;49.238;6.698;2023-04-02T13:39:51;3.93;;;2.73;;
9898;SDS011;4988;49.238;6.698;2023-04-02T13:42:17;4.70;;;3.10;;
9898;SDS011;4988;49.238;6.698;2023-04-02T13:44:42;6.40;;;3.70;;
9898;SDS011;4988;49.238;6.698;2023-04-02T13:47:08;3.07;;;2.77;;
9898;SDS011;4988;49.238;6.698;2023-04-02T13:49:38;2.60;;;2.40;;
9898;SDS011;4988;49.238;6.698;2023-04-02T13:52:03;4.67;;;3.00;;
9898;SDS011;4988;49.238;6.698;2023-04-02T13:57:15;3.10;;;2.80;;
9898;SDS011;4988;49.238;6.698;2023-04-02T13:59:40;4.03;;;3.40;;
9898;SDS011;4988;49.238;6.698;2023-04-02T14:02:10;2.60;;;2.40;;
9898;SDS011;4988;49.238;6.698;2023-04-02T14:04:52;2.90;;;2.57;;
9898;SDS011;4988;49.238;6.698;2023-04-02T14:07:33;3.43;;;2.60;;
9898;SDS011;4988;49.238;6.698;2023-04-02T14:12:52;2.70;;;2.50;;
9898;SDS011;4988;49.238;6.698;2023-04-02T14:15:44;2.70;;;2.50;;
9898;SDS011;4988;49.238;6.698;2023-04-02T14:21:22;2.60;;;2.40;;
9898;SDS011;4988;49.238;6.698;2023-04-02T14:31:54;2.70;;;2.50;;
9898;SDS011;4988;49.238;6.698;2023-04-02T14:40:09;2.43;;;2.23;;
9898;SDS011;4988;49.238;6.698;2023-04-02T14:42:43;2.70;;;2.40;;
9898;SDS011;4988;49.238;6.698;2023-04-02T14:48:15;7.13;;;3.33;;
9898;SDS011;4988;49.238;6.698;2023-04-02T14:50:56;3.10;;;2.70;;
9898;SDS011;4988;49.238;6.698;2023-04-02T14:53:26;3.63;;;3.33;;
9898;SDS011;4988;49.238;6.698;2023-04-02T14:56:01;3.27;;;2.97;;
9898;SDS011;4988;49.238;6.698;2023-04-02T14:58:32;3.20;;;2.30;;
9898;SDS011;4988;49.238;6.698;2023-04-02T15:01:15;2.50;;;2.40;;
9898;SDS011;4988;49.238;6.698;2023-04-02T15:06:55;2.63;;;2.40;;
9898;SDS011;4988;49.238;6.698;2023-04-02T15:09:27;4.10;;;2.80;;
9898;SDS011;4988;49.238;6.698;2023-04-02T15:14:47;4.10;;;2.73;;
9898;SDS011;4988;49.238;6.698;2023-04-02T15:17:17;2.50;;;2.30;;
9898;SDS011;4988;49.238;6.698;2023-04-02T15:19:44;3.47;;;2.50;;
9898;SDS011;4988;49.238;6.698;2023-04-02T15:25:00;7.73;;;4.43;;
9898;SDS011;4988;49.238;6.698;2023-04-02T15:27:39;3.00;;;2.80;;
9898;SDS011;4988;49.238;6.698;2023-04-02T15:30:33;4.53;;;3.03;;
9898;SDS011;4988;49.238;6.698;2023-04-02T15:35:50;3.20;;;2.90;;
9898;SDS011;4988;49.238;6.698;2023-04-02T15:38:23;3.10;;;2.67;;
9898;SDS011;4988;49.238;6.698;2023-04-02T15:41:08;3.00;;;2.80;;
9898;SDS011;4988;49.238;6.698;2023-04-02T15:43:56;3.37;;;2.90;;
9898;SDS011;4988;49.238;6.698;2023-04-02T15:52:09;4.93;;;4.43;;
9898;SDS011;4988;49.238;6.698;2023-04-02T16:02:59;3.57;;;3.23;;
9898;SDS011;4988;49.238;6.698;2023-04-02T16:11:14;3.33;;;3.00;;
9898;SDS011;4988;49.238;6.698;2023-04-02T16:13:42;3.60;;;3.23;;
9898;SDS011;4988;49.238;6.698;2023-04-02T16:16:10;6.07;;;3.30;;
9898;SDS011;4988;49.238;6.698;2023-04-02T16:21:23;4.00;;;2.87;;
9898;SDS011;4988;49.238;6.698;2023-04-02T16:23:52;3.70;;;3.30;;
9898;SDS011;4988;49.238;6.698;2023-04-02T16:26:30;3.50;;;3.20;;
9898;SDS011;4988;49.238;6.698;2023-04-02T16:29:19;3.53;;;3.20;;
9898;SDS011;4988;49.238;6.698;2023-04-02T16:37:21;3.60;;;3.30;;
9898;SDS011;4988;49.238;6.698;2023-04-02T16:42:48;6.57;;;3.27;;
9898;SDS011;4988;49.238;6.698;2023-04-02T16:45:25;3.67;;;3.27;;
9898;SDS011;4988;49.238;6.698;2023-04-02T16:48:16;3.73;;;3.43;;
9898;SDS011;4988;49.238;6.698;2023-04-02T16:56:25;4.87;;;3.47;;
9898;SDS011;4988;49.238;6.698;2023-04-02T16:59:03;4.57;;;3.93;;
9898;SDS011;4988;49.238;6.698;2023-04-02T17:01:48;4.90;;;3.83;;
9898;SDS011;4988;49.238;6.698;2023-04-02T17:07:21;5.13;;;4.00;;
9898;SDS011;4988;49.238;6.698;2023-04-02T17:10:18;4.97;;;4.00;;
9898;SDS011;4988;49.238;6.698;2023-04-02T17:12:54;4.60;;;3.83;;
9898;SDS011;4988;49.238;6.698;2023-04-02T17:15:27;5.50;;;4.30;;
9898;SDS011;4988;49.238;6.698;2023-04-02T17:17:59;4.90;;;4.13;;
9898;SDS011;4988;49.238;6.698;2023-04-02T17:20:26;6.03;;;3.77;;
9898;SDS011;4988;49.238;6.698;2023-04-02T17:22:52;4.73;;;3.83;;
9898;SDS011;4988;49.238;6.698;2023-04-02T17:25:24;5.23;;;4.40;;
9898;SDS011;4988;49.238;6.698;2023-04-02T17:27:53;5.67;;;4.10;;
9898;SDS011;4988;49.238;6.698;2023-04-02T17:32:48;6.97;;;4.50;;
9898;SDS011;4988;49.238;6.698;2023-04-02T17:38:20;7.90;;;5.17;;
9898;SDS011;4988;49.238;6.698;2023-04-02T17:41:17;8.40;;;5.00;;
9898;SDS011;4988;49.238;6.698;2023-04-02T17:46:33;14.10;;;8.60;;
9898;SDS011;4988;49.238;6.698;2023-04-02T17:49:21;12.83;;;7.60;;
9898;SDS011;4988;49.238;6.698;2023-04-02T17:54:44;15.60;;;7.80;;
9898;SDS011;4988;49.238;6.698;2023-04-02T18:00:10;21.70;;;8.87;;
9898;SDS011;4988;49.238;6.698;2023-04-02T18:05:54;15.77;;;7.20;;
9898;SDS011;4988;49.238;6.698;2023-04-02T18:08:30;13.97;;;6.80;;
9898;SDS011;4988;49.238;6.698;2023-04-02T18:11:10;19.00;;;8.87;;
9898;SDS011;4988;49.238;6.698;2023-04-02T18:14:26;12.87;;;6.10;;
9898;SDS011;4988;49.238;6.698;2023-04-02T18:16:51;7.70;;;5.23;;
9898;SDS011;4988;49.238;6.698;2023-04-02T18:19:23;10.53;;;6.60;;
9898;SDS011;4988;49.238;6.698;2023-04-02T18:22:00;10.70;;;5.37;;
9898;SDS011;4988;49.238;6.698;2023-04-02T18:27:24;16.23;;;7.63;;
9898;SDS011;4988;49.238;6.698;2023-04-02T18:30:02;7.53;;;5.50;;
9898;SDS011;4988;49.238;6.698;2023-04-02T18:35:38;14.17;;;7.03;;
9898;SDS011;4988;49.238;6.698;2023-04-02T18:38:18;17.13;;;7.60;;
9898;SDS011;4988;49.238;6.698;2023-04-02T18:43:44;9.77;;;5.77;;
9898;SDS011;4988;49.238;6.698;2023-04-02T18:51:49;7.60;;;5.57;;
9898;SDS011;4988;49.238;6.698;2023-04-02T18:54:24;8.07;;;5.20;;
9898;SDS011;4988;49.238;6.698;2023-04-02T18:56:53;6.57;;;4.80;;
9898;SDS011;4988;49.238;6.698;2023-04-02T18:59:27;8.20;;;5.33;;
9898;SDS011;4988;49.238;6.698;2023-04-02T19:01:59;8.63;;;5.50;;
9898;SDS011;4988;49.238;6.698;2023-04-02T19:04:48;8.17;;;6.00;;
9898;SDS011;4988;49.238;6.698;2023-04-02T19:07:26;8.73;;;5.97;;
9898;SDS011;4988;49.238;6.698;2023-04-02T19:09:56;8.07;;;5.37;;
9898;SDS011;4988;49.238;6.698;2023-04-02T19:12:26;9.03;;;4.70;;
9898;SDS011;4988;49.238;6.698;2023-04-02T19:14:52;7.80;;;5.40;;
9898;SDS011;4988;49.238;6.698;2023-04-02T19:17:38;7.40;;;5.30;;
9898;SDS011;4988;49.238;6.698;2023-04-02T19:23:09;7.73;;;5.33;;
9898;SDS011;4988;49.238;6.698;2023-04-02T19:26:23;7.30;;;4.80;;
9898;SDS011;4988;49.238;6.698;2023-04-02T19:28:30;10.93;;;5.60;;
9898;SDS011;4988;49.238;6.698;2023-04-02T19:31:15;7.97;;;5.57;;
9898;SDS011;4988;49.238;6.698;2023-04-02T19:37:00;11.00;;;6.43;;
9898;SDS011;4988;49.238;6.698;2023-04-02T19:45:49;8.70;;;5.80;;
9898;SDS011;4988;49.238;6.698;2023-04-02T19:47:58;10.43;;;6.80;;
9898;SDS011;4988;49.238;6.698;2023-04-02T19:50:27;9.30;;;5.20;;
9898;SDS011;4988;49.238;6.698;2023-04-02T19:52:53;7.40;;;4.90;;
9898;SDS011;4988;49.238;6.698;2023-04-02T19:55:25;6.07;;;4.77;;
9898;SDS011;4988;49.238;6.698;2023-04-02T19:57:51;8.60;;;4.80;;
9898;SDS011;4988;49.238;6.698;2023-04-02T20:00:16;8.53;;;5.47;;
9898;SDS011;4988;49.238;6.698;2023-04-02T20:02:42;10.70;;;6.10;;
9898;SDS011;4988;49.238;6.698;2023-04-02T20:05:07;7.87;;;5.30;;
9898;SDS011;4988;49.238;6.698;2023-04-02T20:07:33;7.20;;;4.63;;
9898;SDS011;4988;49.238;6.698;2023-04-02T20:09:58;5.60;;;4.50;;
9898;SDS011;4988;49.238;6.698;2023-04-02T20:12:24;7.03;;;4.77;;
9898;SDS011;4988;49.238;6.698;2023-04-02T20:14:49;12.73;;;5.23;;
9898;SDS011;4988;49.238;6.698;2023-04-02T20:17:14;8.53;;;5.63;;
9898;SDS011;4988;49.238;6.698;2023-04-02T20:19:40;7.23;;;4.80;;
9898;SDS011;4988;49.238;6.698;2023-04-02T20:22:05;12.93;;;6.43;;
9898;SDS011;4988;49.238;6.698;2023-04-02T20:24:31;7.07;;;5.20;;
9898;SDS011;4988;49.238;6.698;2023-04-02T20:26:56;11.27;;;6.30;;
9898;SDS011;4988;49.238;6.698;2023-04-02T20:29:22;7.17;;;4.70;;
9898;SDS011;4988;49.238;6.698;2023-04-02T20:31:51;5.37;;;4.20;;